Latest Weather Observations for Kowanyama

IDQ60801

Issued at 1:02 pm EST Friday 30 September 2016 (issued every 30 minutes, with the page automatically refreshed every 10 minutes)

About weather observations | Map of weather stations | Latest weather observations for QLD | Other Formats
Station Details ID: 029038 Name: KOWANYAMA AIRPORT Lat: -15.48 Lon: 141.75 Height: 9.6 m
Data from the previous 72 hours. | See also: Recent months at Kowanyama
Date/Time
EST
Temp
°C
App
Temp
°C
Dew
Point
°C
Rel
Hum
%
Delta-T
°C
Wind Press
QNH
hPa
Press
MSL
hPa
Rain since
9am
mm
Dir  Spd
km/h
Gust
km/h
Spd
kts
Gust
kts
30/01:00pm 33.6 34.7 20.4 46 8.8 SSW 15 22 8 12 1009.2 1009.1 0.4
30/12:30pm 32.2 34.0 21.1 52 7.5 SW 13 19 7 10 1009.8 1009.7 0.4
30/12:00pm 31.0 32.6 21.5 57 6.4 SSW 15 19 8 10 1010.5 1010.4 0.4
30/11:30am 28.5 28.9 22.5 70 4.1 SW 24 33 13 18 1010.7 1010.6 0.4
30/11:00am 32.4 35.4 21.3 52 7.5 WNW 7 22 4 12 1010.7 1010.6 0.0
30/10:30am 32.4 35.6 20.6 49 7.9 WSW 4 11 2 6 1010.8 1010.7 0.0
30/10:00am 31.1 34.3 21.3 56 6.6 SSE 6 11 3 6 1011.2 1011.1 0.0
30/09:30am 30.3 33.5 21.7 60 5.8 S 7 15 4 8 1011.3 1011.2 0.0
30/09:00am 29.7 33.5 22.7 66 4.8 SE 7 11 4 6 1011.3 1011.2 0.0
30/08:30am 28.9 32.6 22.6 69 4.3 S 7 13 4 7 1011.5 1011.4 0.0
30/08:00am 28.2 33.8 23.6 76 3.2 CALM 0 0 0 0 1011.1 1011.0 0.0
30/07:30am 26.8 32.2 23.3 81 2.4 CALM 0 0 0 0 1010.9 1010.8 0.0
30/07:00am 25.9 31.3 23.2 85 1.8 CALM 0 0 0 0 1010.7 1010.6 0.0
30/06:30am 24.8 30.0 22.9 89 1.3 CALM 0 0 0 0 1010.3 1010.2 0.0
30/06:00am 24.7 29.8 22.6 88 1.4 CALM 0 0 0 0 1009.9 1009.8 0.0
30/05:30am 25.1 30.0 22.4 85 1.8 CALM 0 0 0 0 1009.9 1009.8 0.0
30/05:00am 25.3 30.5 22.8 86 1.7 CALM 0 0 0 0 1009.5 1009.4 0.0
30/04:30am 25.5 30.0 23.0 86 1.7 SSW 4 7 2 4 1009.4 1009.3 0.0
30/04:00am 25.5 30.8 23.0 86 1.7 CALM 0 0 0 0 1009.2 1009.1 0.0
30/03:30am 25.6 30.9 23.1 86 1.7 CALM 0 0 0 0 1008.9 1008.8 0.0
30/03:00am 26.0 31.2 22.9 83 2.1 CALM 0 6 0 3 1009.0 1008.9 0.0
30/02:30am 26.2 30.1 22.9 82 2.2 NE 7 7 4 4 1009.1 1009.0 0.0
30/02:00am 26.3 31.5 22.8 81 2.4 CALM 0 4 0 2 1009.4 1009.3 0.0
30/01:30am 26.3 30.2 23.0 82 2.2 NE 7 7 4 4 1009.6 1009.5 0.0
30/01:00am 26.7 30.6 23.0 80 2.5 NNE 7 9 4 5 1009.8 1009.7 0.0
30/12:30am 26.8 30.8 22.8 79 2.7 NNE 6 11 3 6 1009.8 1009.7 0.0
30/12:00am 27.2 32.4 22.8 77 3.0 CALM 0 0 0 0 1009.9 1009.8 0.0
 
Date/Time
EST
Temp
°C
App
Temp
°C
Dew
Point
°C
Rel
Hum
%
Delta-T
°C
Wind Press
QNH
hPa
Press
MSL
hPa
Rain since
9am
mm
Dir  Spd
km/h
Gust
km/h
Spd
kts
Gust
kts
29/11:30pm 27.2 32.5 23.0 78 2.9 CALM 0 0 0 0 1010.0 1009.9 0.0
29/11:00pm 27.2 31.7 23.0 78 2.9 WSW 4 7 2 4 1010.0 1009.9 0.0
29/10:30pm 27.2 30.9 23.2 79 2.7 SW 9 13 5 7 1010.0 1009.9 0.0
29/10:00pm 27.3 30.9 23.1 78 2.9 WSW 9 11 5 6 1009.9 1009.8 0.0
29/09:30pm 27.3 30.8 22.9 77 3.0 WSW 9 13 5 7 1010.1 1010.0 0.0
29/09:00pm 27.5 31.0 22.9 76 3.1 SW 9 13 5 7 1009.7 1009.6 0.0
29/08:30pm 27.7 31.0 22.6 74 3.5 WSW 9 13 5 7 1009.3 1009.2 0.0
29/08:00pm 28.1 31.3 22.3 70 3.9 WSW 9 11 5 6 1008.8 1008.7 0.0
29/07:30pm 28.2 30.9 22.2 70 4.0 WSW 11 15 6 8 1008.4 1008.3 0.0
29/07:00pm 28.4 31.0 21.9 68 4.4 WSW 11 17 6 9 1008.0 1007.9 0.0
29/06:30pm 28.7 30.4 21.7 66 4.7 W 15 17 8 9 1007.7 1007.6 0.0
29/06:00pm 29.1 30.8 22.3 66 4.6 WSW 17 20 9 11 1007.5 1007.4 0.0
29/05:30pm 30.5 31.6 21.9 60 5.8 W 19 26 10 14 1007.2 1007.1 0.0
29/05:00pm 31.3 32.2 21.5 56 6.6 WSW 19 26 10 14 1007.1 1007.0 0.0
29/04:30pm 32.1 32.0 20.7 51 7.6 WSW 22 32 12 17 1006.9 1006.8 0.0
29/04:00pm 32.7 32.0 19.6 46 8.7 W 22 32 12 17 1006.9 1006.8 0.0
29/03:30pm 33.9 33.1 18.4 40 10.1 WSW 20 28 11 15 1007.0 1006.9 0.0
29/03:00pm 34.1 32.4 17.3 36 10.8 WNW 22 33 12 18 1007.1 1007.0 0.0
29/02:30pm 34.0 33.1 18.1 39 10.3 W 20 28 11 15 1007.3 1007.2 0.0
29/02:00pm 34.4 33.8 18.8 39 10.2 WNW 20 32 11 17 1007.7 1007.6 0.0
29/01:30pm 34.5 34.5 19.7 41 9.8 WNW 19 30 10 16 1008.1 1008.0 0.0
29/01:00pm 34.2 34.2 20.2 43 9.4 W 20 30 11 16 1008.5 1008.4 0.0
29/12:30pm 34.2 34.5 18.7 40 10.1 W 15 26 8 14 1008.9 1008.8 0.0
29/12:00pm 33.8 35.6 19.5 43 9.5 NNW 9 15 5 8 1009.4 1009.3 0.0
29/11:30am 33.1 34.0 19.2 43 9.1 NW 13 22 7 12 1009.9 1009.8 0.0
29/11:00am 32.9 34.4 19.7 45 8.7 NNW 11 17 6 9 1010.5 1010.4 0.0
29/10:30am 31.6 33.2 19.2 47 8.1 NNW 9 20 5 11 1011.0 1010.9 0.0
29/10:00am 30.8 32.9 20.1 53 7.1 N 9 15 5 8 1011.1 1011.0 0.0
29/09:30am 29.5 31.3 20.4 58 6.0 NNW 11 17 6 9 1011.3 1011.2 0.0
29/09:00am 29.0 31.3 20.7 61 5.5 NNE 9 17 5 9 1011.4 1011.3 0.0
29/08:30am 27.5 29.0 19.8 63 5.0 NNE 11 17 6 9 1011.2 1011.1 0.0
29/08:00am 27.0 28.3 19.4 63 4.9 NNE 11 17 6 9 1011.1 1011.0 0.0
29/07:30am 25.6 27.4 19.5 69 3.9 NE 9 15 5 8 1010.8 1010.7 0.0
29/07:00am 25.0 27.6 20.5 76 2.9 NNE 7 11 4 6 1010.3 1010.2 0.0
29/06:30am 24.4 28.5 21.5 84 1.9 NE 2 6 1 3 1010.2 1010.1 0.0
29/06:00am 24.6 28.2 22.1 86 1.7 NE 6 9 3 5 1009.9 1009.8 0.0
29/05:30am 24.5 28.5 22.8 90 1.1 NE 6 7 3 4 1009.4 1009.3 0.0
29/05:00am 25.0 29.1 22.9 88 1.4 NNE 6 7 3 4 1009.2 1009.1 0.0
29/04:30am 25.2 29.3 22.9 87 1.6 NE 6 9 3 5 1009.0 1008.9 0.0
29/04:00am 25.3 28.9 23.0 87 1.6 NNE 9 11 5 6 1008.9 1008.8 0.0
29/03:30am 25.3 29.2 23.0 87 1.6 NNE 7 11 4 6 1009.3 1009.2 0.0
29/03:00am 25.3 29.2 23.0 87 1.6 NNE 7 11 4 6 1009.5 1009.4 0.0
29/02:30am 25.4 29.4 23.1 87 1.6 N 7 11 4 6 1009.7 1009.6 0.0
29/02:00am 25.6 29.6 23.1 86 1.7 NE 7 9 4 5 1010.1 1010.0 0.0
29/01:30am 25.7 29.6 23.0 85 1.8 NE 7 9 4 5 1010.2 1010.1 0.0
29/01:00am 26.0 30.0 23.1 84 2.0 N 7 9 4 5 1010.5 1010.4 0.0
29/12:30am 26.4 30.6 23.1 82 2.2 N 6 9 3 5 1010.8 1010.7 0.0
29/12:00am 26.7 30.9 23.4 82 2.3 NNE 7 13 4 7 1010.9 1010.8 0.0
 
Date/Time
EST
Temp
°C
App
Temp
°C
Dew
Point
°C
Rel
Hum
%
Delta-T
°C
Wind Press
QNH
hPa
Press
MSL
hPa
Rain since
9am
mm
Dir  Spd
km/h
Gust
km/h
Spd
kts
Gust
kts
28/11:30pm 27.0 31.1 23.3 80 2.5 NNE 7 11 4 6 1011.5 1011.4 0.0
28/11:00pm 27.0 31.4 23.5 81 2.4 NNE 6 9 3 5 1011.6 1011.5 0.0
28/10:30pm 27.0 30.8 23.5 81 2.4 NNE 9 11 5 6 1011.4 1011.3 0.0
28/10:00pm 26.9 30.7 23.4 81 2.4 NNE 9 13 5 7 1010.9 1010.8 0.0
28/09:30pm 26.8 30.5 23.3 81 2.4 WSW 9 13 5 7 1009.9 1009.8 0.0
28/09:00pm 27.0 30.5 23.5 81 2.4 WSW 11 15 6 8 1009.4 1009.3 0.0
28/08:30pm 27.0 30.1 23.5 81 2.4 W 13 17 7 9 1009.0 1008.9 0.0
28/08:00pm 27.2 29.6 23.0 78 2.9 W 15 20 8 11 1008.7 1008.6 0.0
28/07:30pm 27.5 30.0 22.4 73 3.4 W 13 20 7 11 1008.6 1008.5 0.0
28/07:00pm 28.1 28.8 21.6 68 4.4 W 20 28 11 15 1008.4 1008.3 0.0
28/06:30pm 28.9 29.3 20.6 61 5.5 W 19 24 10 13 1008.0 1007.9 0.0
28/06:00pm 30.5 29.5 17.9 47 8.1 W 20 28 11 15 1007.7 1007.6 0.0
28/05:30pm 31.8 30.4 18.0 43 8.9 W 22 28 12 15 1007.3 1007.2 0.0
28/05:00pm 33.1 31.2 17.7 40 9.9 W 24 30 13 16 1006.9 1006.8 0.0
28/04:30pm 33.9 32.4 16.7 35 10.9 W 20 28 11 15 1006.5 1006.4 0.0
28/04:00pm 34.8 32.7 17.1 35 11.4 WNW 24 32 13 17 1006.5 1006.4 0.0
28/03:30pm 35.7 34.8 16.9 32 12.1 NW 17 28 9 15 1006.5 1006.4 0.0
28/03:00pm 36.7 35.4 16.8 30 12.8 WNW 19 32 10 17 1006.7 1006.6 0.0
28/02:30pm 36.6 35.4 14.0 26 14.0 NE 13 22 7 12 1007.2 1007.1 0.0
28/02:00pm 36.8 35.3 14.1 25 14.1 NW 15 24 8 13 1007.7 1007.6 0.0
28/01:30pm 36.4 36.3 13.2 25 14.1 N 6 22 3 12 1008.3 1008.2 0.0
28/01:00pm 35.8 35.0 13.9 27 13.5 NE 11 20 6 11 1008.7 1008.6 0.0
28/12:30pm 35.3 34.5 12.9 26 13.5 N 9 19 5 10 1009.3 1009.2 0.0
28/12:00pm 34.4 34.4 15.3 31 11.9 NNE 9 17 5 9 1009.9 1009.8 0.0
28/11:30am 34.0 33.7 15.5 33 11.6 N 11 20 6 11 1010.6 1010.5 0.0
28/11:00am 32.9 32.4 15.8 35 10.7 NE 13 19 7 10 1011.2 1011.1 0.0
28/10:30am 32.1 32.3 16.8 40 9.7 NNE 11 20 6 11 1011.7 1011.6 0.0
28/10:00am 30.6 30.6 17.3 45 8.4 NNE 13 20 7 11 1012.2 1012.1 0.0
28/09:30am 30.9 31.5 18.6 48 8.0 NE 13 20 7 11 1012.5 1012.4 0.0
28/09:00am 29.2 29.6 18.9 53 6.7 NE 15 22 8 12 1012.5 1012.4 0.0
28/08:30am 27.9 28.2 19.7 61 5.3 NE 17 26 9 14 1012.5 1012.4 0.0
28/08:00am 26.9 27.8 19.3 63 4.9 NE 13 20 7 11 1012.3 1012.2 0.0
28/07:30am 25.8 26.8 18.7 65 4.5 NE 11 20 6 11 1011.8 1011.7 0.0
28/07:00am 25.0 25.5 18.4 66 4.2 NE 13 19 7 10 1011.2 1011.1 0.0
28/06:30am 24.6 25.5 18.3 68 4.0 NE 11 19 6 10 1010.9 1010.8 0.0
28/06:00am 24.7 25.3 17.7 65 4.4 NE 11 17 6 9 1010.7 1010.6 0.0
28/05:30am 25.0 24.9 17.0 61 5.0 NE 13 19 7 10 1010.4 1010.3 0.0
28/05:00am 25.3 25.2 17.0 60 5.2 NE 13 20 7 11 1010.0 1009.9 0.0
28/04:30am 24.7 27.9 21.6 83 2.1 NE 7 11 4 6 1009.9 1009.8 0.0
28/04:00am 24.9 28.0 22.2 85 1.8 NNE 9 13 5 7 1009.7 1009.6 0.0
28/03:30am 25.2 28.5 22.5 85 1.8 NNE 9 11 5 6 1009.7 1009.6 0.0
28/03:00am 24.9 28.6 22.6 87 1.5 NNE 7 9 4 5 1009.8 1009.7 0.0
28/02:30am 25.3 30.4 22.6 85 1.8 CALM 0 0 0 0 1009.9 1009.8 0.0
28/02:00am 25.6 30.1 22.9 85 1.8 E 4 7 2 4 1010.3 1010.2 0.0
28/01:30am 25.3 30.2 23.0 87 1.6 NE 2 7 1 4 1010.5 1010.4 0.0
28/01:00am 24.9 29.2 22.6 87 1.5 NE 4 7 2 4 1010.4 1010.3 0.0
28/12:30am 25.2 30.0 22.9 87 1.6 N 2 7 1 4 1010.5 1010.4 0.0
28/12:00am 25.7 30.2 23.0 85 1.8 NNE 4 7 2 4 1010.5 1010.4 0.0
 
Date/Time
EST
Temp
°C
App
Temp
°C
Dew
Point
°C
Rel
Hum
%
Delta-T
°C
Wind Press
QNH
hPa
Press
MSL
hPa
Rain since
9am
mm
Dir  Spd
km/h
Gust
km/h
Spd
kts
Gust
kts
27/11:30pm 26.1 29.8 23.2 84 2.0 NNE 9 13 5 7 1010.7 1010.6 0.0
27/11:00pm 26.5 30.4 23.6 84 2.0 NNE 9 13 5 7 1010.9 1010.8 0.0
27/10:30pm 26.4 30.4 23.7 85 1.9 N 9 17 5 9 1010.8 1010.7 0.0
27/10:00pm 26.6 30.2 23.7 84 2.0 SW 11 17 6 9 1010.1 1010.0 0.0
27/09:30pm 26.7 30.6 23.6 83 2.1 SSW 9 13 5 7 1009.9 1009.8 0.0
27/09:00pm 27.0 30.2 23.7 82 2.3 SW 13 17 7 9 1009.7 1009.6 0.0
27/08:30pm 27.3 30.9 23.1 78 2.9 WSW 9 13 5 7 1009.4 1009.3 0.0
27/08:00pm 27.6 30.0 22.3 73 3.6 SW 13 17 7 9 1009.2 1009.1 0.0
27/07:30pm 28.1 31.1 21.9 69 4.2 WSW 9 15 5 8 1009.0 1008.9 0.0
27/07:00pm 28.8 30.1 21.6 65 4.8 SW 17 20 9 11 1008.9 1008.8 0.0
27/06:30pm 29.8 30.7 20.1 56 6.4 WSW 15 22 8 12 1008.4 1008.3 0.0
27/06:00pm 31.1 31.1 19.8 51 7.4 WSW 19 24 10 13 1008.1 1008.0 0.0
27/05:30pm 32.0 31.8 19.3 47 8.3 WSW 19 26 10 14 1007.5 1007.4 0.0
27/05:00pm 33.2 32.2 18.9 42 9.4 W 22 32 12 17 1007.0 1006.9 0.0
27/04:30pm 34.7 32.5 18.7 38 10.5 W 28 35 15 19 1006.7 1006.6 0.0
27/04:28pm 34.7 32.7 19.1 39 10.3 WSW 28 35 15 19 1006.6 1006.5 0.0
27/04:00pm 37.8 36.8 11.0 20 16.0 ENE 7 15 4 8 1006.6 1006.5 0.0
27/03:30pm 38.5 37.1 12.3 21 15.9 ENE 11 17 6 9 1006.7 1006.6 0.0
27/03:00pm 38.1 36.9 12.7 22 15.5 ENE 11 19 6 10 1006.9 1006.8 0.0
27/02:30pm 37.4 36.4 13.4 24 14.7 ENE 11 24 6 13 1007.4 1007.3 0.0
27/02:00pm 37.2 36.0 13.9 25 14.4 E 13 20 7 11 1007.8 1007.7 0.0
27/01:30pm 36.7 35.3 13.5 25 14.2 E 13 22 7 12 1008.7 1008.6 0.0

Other Formats:

Comma delimited format used in spreadsheet applications
http://www.bom.gov.au/fwo/IDQ60801/IDQ60801.94268.axf

JavaScript Object Notation format (JSON) in row-major order
http://www.bom.gov.au/fwo/IDQ60801/IDQ60801.94268.json